sensor_id;sensor_type;location;lat;lon;timestamp;temperature;humidity
9973;DHT22;5027;53.560;10.062;2023-04-25T00:00:11;13.90;99.90
9973;DHT22;5027;53.560;10.062;2023-04-25T00:02:38;14.10;99.90
9973;DHT22;5027;53.560;10.062;2023-04-25T00:05:05;14.10;99.90
9973;DHT22;5027;53.560;10.062;2023-04-25T00:07:32;14.20;99.90
9973;DHT22;5027;53.560;10.062;2023-04-25T00:09:59;14.30;99.90
9973;DHT22;5027;53.560;10.062;2023-04-25T00:12:25;14.50;99.90
9973;DHT22;5027;53.560;10.062;2023-04-25T00:14:55;14.60;99.90
9973;DHT22;5027;53.560;10.062;2023-04-25T00:17:23;14.80;99.90
9973;DHT22;5027;53.560;10.062;2023-04-25T00:19:51;14.70;99.90
9973;DHT22;5027;53.560;10.062;2023-04-25T00:22:18;14.90;99.90
9973;DHT22;5027;53.560;10.062;2023-04-25T00:24:45;15.50;99.90
9973;DHT22;5027;53.560;10.062;2023-04-25T00:27:11;15.40;99.90
9973;DHT22;5027;53.560;10.062;2023-04-25T00:29:38;15.40;99.90
9973;DHT22;5027;53.560;10.062;2023-04-25T00:32:04;15.70;99.90
9973;DHT22;5027;53.560;10.062;2023-04-25T00:34:31;15.90;99.90
9973;DHT22;5027;53.560;10.062;2023-04-25T00:36:58;15.70;99.90
9973;DHT22;5027;53.560;10.062;2023-04-25T00:39:24;16.00;99.90
9973;DHT22;5027;53.560;10.062;2023-04-25T00:41:53;15.60;99.90
9973;DHT22;5027;53.560;10.062;2023-04-25T00:44:21;15.40;99.90
9973;DHT22;5027;53.560;10.062;2023-04-25T00:46:48;15.80;99.90
9973;DHT22;5027;53.560;10.062;2023-04-25T00:49:16;15.70;99.90
9973;DHT22;5027;53.560;10.062;2023-04-25T00:51:44;15.40;99.90
9973;DHT22;5027;53.560;10.062;2023-04-25T00:54:12;15.40;99.90
9973;DHT22;5027;53.560;10.062;2023-04-25T00:56:39;15.30;99.90
9973;DHT22;5027;53.560;10.062;2023-04-25T00:59:06;15.60;99.90
9973;DHT22;5027;53.560;10.062;2023-04-25T01:01:34;16.20;99.90
9973;DHT22;5027;53.560;10.062;2023-04-25T01:04:01;16.50;99.90
9973;DHT22;5027;53.560;10.062;2023-04-25T01:06:28;16.30;98.30
9973;DHT22;5027;53.560;10.062;2023-04-25T01:08:56;15.80;99.90
9973;DHT22;5027;53.560;10.062;2023-04-25T01:11:23;16.30;99.90
9973;DHT22;5027;53.560;10.062;2023-04-25T01:13:50;15.80;99.90
9973;DHT22;5027;53.560;10.062;2023-04-25T01:16:17;15.80;99.60
9973;DHT22;5027;53.560;10.062;2023-04-25T01:18:45;15.30;99.80
9973;DHT22;5027;53.560;10.062;2023-04-25T01:21:12;15.20;99.80
9973;DHT22;5027;53.560;10.062;2023-04-25T01:23:40;15.40;99.90
9973;DHT22;5027;53.560;10.062;2023-04-25T01:26:09;15.40;99.90
9973;DHT22;5027;53.560;10.062;2023-04-25T01:28:37;15.50;99.90
9973;DHT22;5027;53.560;10.062;2023-04-25T01:31:04;15.90;99.90
9973;DHT22;5027;53.560;10.062;2023-04-25T01:33:32;15.90;99.40
9973;DHT22;5027;53.560;10.062;2023-04-25T01:35:58;15.70;99.90
9973;DHT22;5027;53.560;10.062;2023-04-25T01:38:25;15.20;99.20
9973;DHT22;5027;53.560;10.062;2023-04-25T01:40:53;15.30;99.90
9973;DHT22;5027;53.560;10.062;2023-04-25T01:43:21;15.90;99.90
9973;DHT22;5027;53.560;10.062;2023-04-25T01:45:49;15.60;99.00
9973;DHT22;5027;53.560;10.062;2023-04-25T01:48:16;15.40;99.90
9973;DHT22;5027;53.560;10.062;2023-04-25T01:50:44;14.90;99.90
9973;DHT22;5027;53.560;10.062;2023-04-25T01:53:12;14.70;98.90
9973;DHT22;5027;53.560;10.062;2023-04-25T01:55:40;14.50;99.30
9973;DHT22;5027;53.560;10.062;2023-04-25T01:58:10;14.70;99.10
9973;DHT22;5027;53.560;10.062;2023-04-25T02:00:57;14.50;99.30
9973;DHT22;5027;53.560;10.062;2023-04-25T02:03:31;14.80;99.90
9973;DHT22;5027;53.560;10.062;2023-04-25T02:05:59;14.90;98.90
9973;DHT22;5027;53.560;10.062;2023-04-25T02:08:27;15.20;98.50
9973;DHT22;5027;53.560;10.062;2023-04-25T02:10:54;14.90;97.90
9973;DHT22;5027;53.560;10.062;2023-04-25T02:13:22;14.70;98.10
9973;DHT22;5027;53.560;10.062;2023-04-25T02:16:10;14.60;99.90
9973;DHT22;5027;53.560;10.062;2023-04-25T02:18:37;15.00;99.90
9973;DHT22;5027;53.560;10.062;2023-04-25T02:21:05;14.80;97.90
9973;DHT22;5027;53.560;10.062;2023-04-25T02:23:32;15.20;99.70
9973;DHT22;5027;53.560;10.062;2023-04-25T02:25:59;15.00;96.80
9973;DHT22;5027;53.560;10.062;2023-04-25T02:28:26;14.80;98.10
9973;DHT22;5027;53.560;10.062;2023-04-25T02:30:53;14.60;99.40
9973;DHT22;5027;53.560;10.062;2023-04-25T02:33:19;14.40;99.90
9973;DHT22;5027;53.560;10.062;2023-04-25T02:35:47;14.80;97.30
9973;DHT22;5027;53.560;10.062;2023-04-25T02:38:14;14.50;97.40
9973;DHT22;5027;53.560;10.062;2023-04-25T02:40:41;14.50;97.60
9973;DHT22;5027;53.560;10.062;2023-04-25T02:43:07;14.40;97.20
9973;DHT22;5027;53.560;10.062;2023-04-25T02:45:34;14.20;97.30
9973;DHT22;5027;53.560;10.062;2023-04-25T02:48:02;14.10;98.10
9973;DHT22;5027;53.560;10.062;2023-04-25T02:50:31;14.10;97.40
9973;DHT22;5027;53.560;10.062;2023-04-25T02:52:58;14.40;99.80
9973;DHT22;5027;53.560;10.062;2023-04-25T02:55:30;14.50;98.00
9973;DHT22;5027;53.560;10.062;2023-04-25T02:57:58;15.20;99.90
9973;DHT22;5027;53.560;10.062;2023-04-25T03:00:43;15.10;97.30
9973;DHT22;5027;53.560;10.062;2023-04-25T03:03:10;14.80;96.70
9973;DHT22;5027;53.560;10.062;2023-04-25T03:05:37;15.20;99.90
9973;DHT22;5027;53.560;10.062;2023-04-25T03:08:04;15.80;99.90
9973;DHT22;5027;53.560;10.062;2023-04-25T03:10:35;15.60;98.10
9973;DHT22;5027;53.560;10.062;2023-04-25T03:13:05;15.30;98.50
9973;DHT22;5027;53.560;10.062;2023-04-25T03:15:32;15.20;98.90
9973;DHT22;5027;53.560;10.062;2023-04-25T03:17:58;15.20;98.10
9973;DHT22;5027;53.560;10.062;2023-04-25T03:20:25;14.80;95.50
9973;DHT22;5027;53.560;10.062;2023-04-25T03:22:52;14.50;97.10
9973;DHT22;5027;53.560;10.062;2023-04-25T03:25:19;14.80;96.10
9973;DHT22;5027;53.560;10.062;2023-04-25T03:27:45;14.40;95.30
9973;DHT22;5027;53.560;10.062;2023-04-25T03:30:12;14.10;95.50
9973;DHT22;5027;53.560;10.062;2023-04-25T03:32:40;14.00;96.00
9973;DHT22;5027;53.560;10.062;2023-04-25T03:35:07;14.10;95.70
9973;DHT22;5027;53.560;10.062;2023-04-25T03:37:34;14.00;95.10
9973;DHT22;5027;53.560;10.062;2023-04-25T03:40:01;13.70;94.70
9973;DHT22;5027;53.560;10.062;2023-04-25T03:42:48;13.60;94.60
9973;DHT22;5027;53.560;10.062;2023-04-25T03:45:15;13.70;97.50
9973;DHT22;5027;53.560;10.062;2023-04-25T03:47:42;13.70;94.60
9973;DHT22;5027;53.560;10.062;2023-04-25T03:50:09;13.80;93.40
9973;DHT22;5027;53.560;10.062;2023-04-25T03:52:36;13.60;93.80
9973;DHT22;5027;53.560;10.062;2023-04-25T03:55:03;13.70;94.00
9973;DHT22;5027;53.560;10.062;2023-04-25T03:57:31;13.50;94.30
9973;DHT22;5027;53.560;10.062;2023-04-25T03:59:58;13.90;94.10
9973;DHT22;5027;53.560;10.062;2023-04-25T04:02:28;13.90;93.90
9973;DHT22;5027;53.560;10.062;2023-04-25T04:04:55;13.90;97.20
9973;DHT22;5027;53.560;10.062;2023-04-25T04:07:23;14.00;93.80
9973;DHT22;5027;53.560;10.062;2023-04-25T04:09:53;14.00;92.70
9973;DHT22;5027;53.560;10.062;2023-04-25T04:12:26;13.70;93.60
9973;DHT22;5027;53.560;10.062;2023-04-25T04:14:53;13.90;93.50
9973;DHT22;5027;53.560;10.062;2023-04-25T04:17:20;14.00;92.90
9973;DHT22;5027;53.560;10.062;2023-04-25T04:19:48;13.80;92.70
9973;DHT22;5027;53.560;10.062;2023-04-25T04:22:17;13.50;92.40
9973;DHT22;5027;53.560;10.062;2023-04-25T04:24:45;14.00;93.70
9973;DHT22;5027;53.560;10.062;2023-04-25T04:27:21;13.70;92.50
9973;DHT22;5027;53.560;10.062;2023-04-25T04:30:12;13.50;92.60
9973;DHT22;5027;53.560;10.062;2023-04-25T04:32:52;13.50;92.90
9973;DHT22;5027;53.560;10.062;2023-04-25T04:35:20;13.50;92.70
9973;DHT22;5027;53.560;10.062;2023-04-25T04:37:47;13.50;92.20
9973;DHT22;5027;53.560;10.062;2023-04-25T04:40:16;13.40;92.30
9973;DHT22;5027;53.560;10.062;2023-04-25T04:42:49;13.30;92.10
9973;DHT22;5027;53.560;10.062;2023-04-25T04:45:34;13.20;91.70
9973;DHT22;5027;53.560;10.062;2023-04-25T04:48:18;13.40;92.60
9973;DHT22;5027;53.560;10.062;2023-04-25T04:51:04;13.70;91.80
9973;DHT22;5027;53.560;10.062;2023-04-25T04:53:49;13.90;93.30
9973;DHT22;5027;53.560;10.062;2023-04-25T04:56:46;13.80;91.30
9973;DHT22;5027;53.560;10.062;2023-04-25T04:59:37;13.60;91.90
9973;DHT22;5027;53.560;10.062;2023-04-25T05:02:20;13.70;92.00
9973;DHT22;5027;53.560;10.062;2023-04-25T05:05:00;13.80;92.00
9973;DHT22;5027;53.560;10.062;2023-04-25T05:07:46;13.70;91.30
9973;DHT22;5027;53.560;10.062;2023-04-25T05:10:27;13.60;91.60
9973;DHT22;5027;53.560;10.062;2023-04-25T05:13:04;13.40;91.70
9973;DHT22;5027;53.560;10.062;2023-04-25T05:15:41;13.30;92.50
9973;DHT22;5027;53.560;10.062;2023-04-25T05:18:26;13.30;92.30
9973;DHT22;5027;53.560;10.062;2023-04-25T05:21:05;13.70;99.90
9973;DHT22;5027;53.560;10.062;2023-04-25T05:23:47;14.50;94.20
9973;DHT22;5027;53.560;10.062;2023-04-25T05:26:49;15.00;94.00
9973;DHT22;5027;53.560;10.062;2023-04-25T05:29:26;14.50;93.80
9973;DHT22;5027;53.560;10.062;2023-04-25T05:32:00;13.90;93.90
9973;DHT22;5027;53.560;10.062;2023-04-25T05:34:28;13.70;93.00
9973;DHT22;5027;53.560;10.062;2023-04-25T05:36:58;13.60;95.30
9973;DHT22;5027;53.560;10.062;2023-04-25T05:39:24;13.50;93.00
9973;DHT22;5027;53.560;10.062;2023-04-25T05:42:06;13.50;93.20
9973;DHT22;5027;53.560;10.062;2023-04-25T05:44:50;13.60;93.00
9973;DHT22;5027;53.560;10.062;2023-04-25T05:47:52;13.40;93.50
9973;DHT22;5027;53.560;10.062;2023-04-25T05:50:25;13.50;93.00
9973;DHT22;5027;53.560;10.062;2023-04-25T05:52:55;13.70;99.90
9973;DHT22;5027;53.560;10.062;2023-04-25T05:55:29;14.40;94.90
9973;DHT22;5027;53.560;10.062;2023-04-25T05:57:58;14.10;95.70
9973;DHT22;5027;53.560;10.062;2023-04-25T06:00:25;13.70;92.30
9973;DHT22;5027;53.560;10.062;2023-04-25T06:02:52;13.60;92.20
9973;DHT22;5027;53.560;10.062;2023-04-25T06:05:20;13.90;1.00
9973;DHT22;5027;53.560;10.062;2023-04-25T06:07:47;14.10;95.50
9973;DHT22;5027;53.560;10.062;2023-04-25T06:10:14;14.10;94.00
9973;DHT22;5027;53.560;10.062;2023-04-25T06:12:41;13.90;92.70
9973;DHT22;5027;53.560;10.062;2023-04-25T06:15:09;13.70;93.50
9973;DHT22;5027;53.560;10.062;2023-04-25T06:17:52;14.10;96.10
9973;DHT22;5027;53.560;10.062;2023-04-25T06:20:19;14.00;93.40
9973;DHT22;5027;53.560;10.062;2023-04-25T06:22:50;14.00;93.40
9973;DHT22;5027;53.560;10.062;2023-04-25T06:25:20;14.10;93.20
9973;DHT22;5027;53.560;10.062;2023-04-25T06:27:47;14.20;93.10
9973;DHT22;5027;53.560;10.062;2023-04-25T06:30:14;13.90;93.30
9973;DHT22;5027;53.560;10.062;2023-04-25T06:32:41;14.00;99.90
9973;DHT22;5027;53.560;10.062;2023-04-25T06:35:08;14.50;95.40
9973;DHT22;5027;53.560;10.062;2023-04-25T06:37:36;14.10;93.20
9973;DHT22;5027;53.560;10.062;2023-04-25T06:40:02;13.90;93.60
9973;DHT22;5027;53.560;10.062;2023-04-25T06:42:29;13.70;93.70
9973;DHT22;5027;53.560;10.062;2023-04-25T06:44:58;13.60;94.20
9973;DHT22;5027;53.560;10.062;2023-04-25T06:47:27;13.80;94.30
9973;DHT22;5027;53.560;10.062;2023-04-25T06:49:53;13.80;94.40
9973;DHT22;5027;53.560;10.062;2023-04-25T06:52:20;14.40;95.30
9973;DHT22;5027;53.560;10.062;2023-04-25T06:54:48;14.60;99.90
9973;DHT22;5027;53.560;10.062;2023-04-25T06:57:23;14.50;93.50
9973;DHT22;5027;53.560;10.062;2023-04-25T06:59:50;14.00;93.90
9973;DHT22;5027;53.560;10.062;2023-04-25T07:02:16;14.00;95.90
9973;DHT22;5027;53.560;10.062;2023-04-25T07:04:44;13.70;94.20
9973;DHT22;5027;53.560;10.062;2023-04-25T07:07:12;13.60;96.20
9973;DHT22;5027;53.560;10.062;2023-04-25T07:09:45;14.30;96.10
9973;DHT22;5027;53.560;10.062;2023-04-25T07:12:12;13.70;93.30
9973;DHT22;5027;53.560;10.062;2023-04-25T07:14:39;14.30;99.80
9973;DHT22;5027;53.560;10.062;2023-04-25T07:17:07;14.50;98.50
9973;DHT22;5027;53.560;10.062;2023-04-25T07:19:34;14.00;93.90
9973;DHT22;5027;53.560;10.062;2023-04-25T07:22:01;14.60;94.90
9973;DHT22;5027;53.560;10.062;2023-04-25T07:24:30;14.30;93.70
9973;DHT22;5027;53.560;10.062;2023-04-25T07:26:57;14.80;94.70
9973;DHT22;5027;53.560;10.062;2023-04-25T07:29:34;14.40;93.60
9973;DHT22;5027;53.560;10.062;2023-04-25T07:32:03;14.60;93.10
9973;DHT22;5027;53.560;10.062;2023-04-25T07:34:31;14.20;93.00
9973;DHT22;5027;53.560;10.062;2023-04-25T07:36:58;14.90;99.00
9973;DHT22;5027;53.560;10.062;2023-04-25T07:39:31;15.00;94.90
9973;DHT22;5027;53.560;10.062;2023-04-25T07:41:59;15.00;95.60
9973;DHT22;5027;53.560;10.062;2023-04-25T07:44:28;14.90;94.40
9973;DHT22;5027;53.560;10.062;2023-04-25T07:46:57;14.30;92.90
9973;DHT22;5027;53.560;10.062;2023-04-25T07:49:24;14.00;94.20
9973;DHT22;5027;53.560;10.062;2023-04-25T07:51:51;13.90;96.80
9973;DHT22;5027;53.560;10.062;2023-04-25T07:54:19;14.60;96.70
9973;DHT22;5027;53.560;10.062;2023-04-25T07:56:51;14.90;94.80
9973;DHT22;5027;53.560;10.062;2023-04-25T07:59:24;14.40;93.10
9973;DHT22;5027;53.560;10.062;2023-04-25T08:01:54;14.30;94.50
9973;DHT22;5027;53.560;10.062;2023-04-25T08:04:21;14.10;93.90
9973;DHT22;5027;53.560;10.062;2023-04-25T08:06:53;14.00;98.50
9973;DHT22;5027;53.560;10.062;2023-04-25T08:09:26;14.50;99.90
9973;DHT22;5027;53.560;10.062;2023-04-25T08:11:54;14.70;93.70
9973;DHT22;5027;53.560;10.062;2023-04-25T08:14:26;14.20;93.40
9973;DHT22;5027;53.560;10.062;2023-04-25T08:16:53;14.50;99.50
9973;DHT22;5027;53.560;10.062;2023-04-25T08:19:19;14.30;96.50
9973;DHT22;5027;53.560;10.062;2023-04-25T08:21:47;14.30;93.20
9973;DHT22;5027;53.560;10.062;2023-04-25T08:24:18;15.10;99.90
9973;DHT22;5027;53.560;10.062;2023-04-25T08:26:45;15.40;98.10
9973;DHT22;5027;53.560;10.062;2023-04-25T08:29:15;15.10;93.10
9973;DHT22;5027;53.560;10.062;2023-04-25T08:31:42;15.50;99.90
9973;DHT22;5027;53.560;10.062;2023-04-25T08:34:09;15.80;96.70
9973;DHT22;5027;53.560;10.062;2023-04-25T08:36:42;15.50;96.60
9973;DHT22;5027;53.560;10.062;2023-04-25T08:39:22;15.50;98.50
9973;DHT22;5027;53.560;10.062;2023-04-25T08:42:09;15.50;98.70
9973;DHT22;5027;53.560;10.062;2023-04-25T08:44:39;15.70;94.80
9973;DHT22;5027;53.560;10.062;2023-04-25T08:47:06;15.30;96.10
9973;DHT22;5027;53.560;10.062;2023-04-25T08:49:44;15.10;97.90
9973;DHT22;5027;53.560;10.062;2023-04-25T08:52:13;14.90;96.50
9973;DHT22;5027;53.560;10.062;2023-04-25T08:54:43;15.60;99.90
9973;DHT22;5027;53.560;10.062;2023-04-25T08:57:12;15.40;98.20
9973;DHT22;5027;53.560;10.062;2023-04-25T08:59:41;15.60;99.30
9973;DHT22;5027;53.560;10.062;2023-04-25T09:02:12;15.80;99.90
9973;DHT22;5027;53.560;10.062;2023-04-25T09:04:47;15.90;97.90
9973;DHT22;5027;53.560;10.062;2023-04-25T09:07:14;15.30;92.10
9973;DHT22;5027;53.560;10.062;2023-04-25T09:09:45;15.50;98.10
9973;DHT22;5027;53.560;10.062;2023-04-25T09:12:13;15.30;93.80
9973;DHT22;5027;53.560;10.062;2023-04-25T09:14:39;14.70;96.30
9973;DHT22;5027;53.560;10.062;2023-04-25T09:17:17;15.40;94.60
9973;DHT22;5027;53.560;10.062;2023-04-25T09:19:53;15.00;93.80
9973;DHT22;5027;53.560;10.062;2023-04-25T09:22:25;14.70;99.90
9973;DHT22;5027;53.560;10.062;2023-04-25T09:24:52;15.50;97.10
9973;DHT22;5027;53.560;10.062;2023-04-25T09:27:22;15.60;98.90
9973;DHT22;5027;53.560;10.062;2023-04-25T09:30:02;15.10;96.80
9973;DHT22;5027;53.560;10.062;2023-04-25T09:32:45;14.60;95.10
9973;DHT22;5027;53.560;10.062;2023-04-25T09:35:23;15.20;97.30
9973;DHT22;5027;53.560;10.062;2023-04-25T09:37:51;15.30;97.90
9973;DHT22;5027;53.560;10.062;2023-04-25T09:40:42;15.30;96.20
9973;DHT22;5027;53.560;10.062;2023-04-25T09:43:23;15.00;92.10
9973;DHT22;5027;53.560;10.062;2023-04-25T09:45:53;15.30;95.90
9973;DHT22;5027;53.560;10.062;2023-04-25T09:48:24;15.40;99.30
9973;DHT22;5027;53.560;10.062;2023-04-25T09:51:11;15.80;99.90
9973;DHT22;5027;53.560;10.062;2023-04-25T09:53:42;16.30;99.90
9973;DHT22;5027;53.560;10.062;2023-04-25T09:56:32;16.20;99.10
9973;DHT22;5027;53.560;10.062;2023-04-25T09:59:04;16.10;99.90
9973;DHT22;5027;53.560;10.062;2023-04-25T10:01:32;15.70;99.10
9973;DHT22;5027;53.560;10.062;2023-04-25T10:04:10;15.40;97.00
9973;DHT22;5027;53.560;10.062;2023-04-25T10:06:48;14.80;96.80
9973;DHT22;5027;53.560;10.062;2023-04-25T10:09:20;15.40;99.90
9973;DHT22;5027;53.560;10.062;2023-04-25T10:11:47;15.30;95.40
9973;DHT22;5027;53.560;10.062;2023-04-25T10:14:18;14.90;98.10
9973;DHT22;5027;53.560;10.062;2023-04-25T10:16:45;15.00;96.30
9973;DHT22;5027;53.560;10.062;2023-04-25T10:19:12;14.50;95.70
9973;DHT22;5027;53.560;10.062;2023-04-25T10:21:46;14.50;97.20
9973;DHT22;5027;53.560;10.062;2023-04-25T10:24:15;15.40;99.90
9973;DHT22;5027;53.560;10.062;2023-04-25T10:26:41;15.60;99.90
9973;DHT22;5027;53.560;10.062;2023-04-25T10:29:09;16.10;99.90
9973;DHT22;5027;53.560;10.062;2023-04-25T10:31:45;16.40;99.90
9973;DHT22;5027;53.560;10.062;2023-04-25T10:34:13;16.00;95.40
9973;DHT22;5027;53.560;10.062;2023-04-25T10:36:40;16.10;99.90
9973;DHT22;5027;53.560;10.062;2023-04-25T10:39:07;16.20;97.90
9973;DHT22;5027;53.560;10.062;2023-04-25T10:41:46;16.20;97.70
9973;DHT22;5027;53.560;10.062;2023-04-25T10:44:14;16.40;98.20
9973;DHT22;5027;53.560;10.062;2023-04-25T10:46:44;16.20;98.00
9973;DHT22;5027;53.560;10.062;2023-04-25T10:49:46;16.20;95.70
9973;DHT22;5027;53.560;10.062;2023-04-25T10:52:26;16.20;98.20
9973;DHT22;5027;53.560;10.062;2023-04-25T10:54:56;15.70;91.50
9973;DHT22;5027;53.560;10.062;2023-04-25T10:57:42;15.70;92.60
9973;DHT22;5027;53.560;10.062;2023-04-25T11:02:47;15.50;97.80
9973;DHT22;5027;53.560;10.062;2023-04-25T11:07:54;15.70;91.70
9973;DHT22;5027;53.560;10.062;2023-04-25T11:10:33;15.50;92.20
9973;DHT22;5027;53.560;10.062;2023-04-25T11:13:03;15.40;91.70
9973;DHT22;5027;53.560;10.062;2023-04-25T11:15:30;14.90;91.50
9973;DHT22;5027;53.560;10.062;2023-04-25T11:17:57;14.60;92.10
9973;DHT22;5027;53.560;10.062;2023-04-25T11:20:26;14.60;94.20
9973;DHT22;5027;53.560;10.062;2023-04-25T11:22:57;15.10;94.00
9973;DHT22;5027;53.560;10.062;2023-04-25T11:25:24;15.20;91.50
9973;DHT22;5027;53.560;10.062;2023-04-25T11:27:53;14.90;91.60
9973;DHT22;5027;53.560;10.062;2023-04-25T11:30:21;14.90;91.80
9973;DHT22;5027;53.560;10.062;2023-04-25T11:32:48;15.00;95.00
9973;DHT22;5027;53.560;10.062;2023-04-25T11:35:15;15.50;96.80
9973;DHT22;5027;53.560;10.062;2023-04-25T11:37:43;15.80;97.30
9973;DHT22;5027;53.560;10.062;2023-04-25T11:40:12;16.00;97.30
9973;DHT22;5027;53.560;10.062;2023-04-25T11:42:43;16.00;98.70
9973;DHT22;5027;53.560;10.062;2023-04-25T11:45:11;15.40;97.30
9973;DHT22;5027;53.560;10.062;2023-04-25T11:47:38;15.90;98.50
9973;DHT22;5027;53.560;10.062;2023-04-25T11:50:06;15.80;99.20
9973;DHT22;5027;53.560;10.062;2023-04-25T11:52:47;15.70;96.60
9973;DHT22;5027;53.560;10.062;2023-04-25T11:55:14;15.50;96.50
9973;DHT22;5027;53.560;10.062;2023-04-25T11:57:43;15.40;94.70
9973;DHT22;5027;53.560;10.062;2023-04-25T12:00:15;15.50;99.50
9973;DHT22;5027;53.560;10.062;2023-04-25T12:02:47;15.40;97.00
9973;DHT22;5027;53.560;10.062;2023-04-25T12:05:15;15.50;97.60
9973;DHT22;5027;53.560;10.062;2023-04-25T12:07:57;15.40;94.60
9973;DHT22;5027;53.560;10.062;2023-04-25T12:10:25;15.00;92.90
9973;DHT22;5027;53.560;10.062;2023-04-25T12:12:52;15.10;95.00
9973;DHT22;5027;53.560;10.062;2023-04-25T12:15:24;15.20;96.10
9973;DHT22;5027;53.560;10.062;2023-04-25T12:17:53;15.60;97.40
9973;DHT22;5027;53.560;10.062;2023-04-25T12:20:24;15.70;96.60
9973;DHT22;5027;53.560;10.062;2023-04-25T12:22:52;16.20;97.10
9973;DHT22;5027;53.560;10.062;2023-04-25T12:28:13;16.20;97.90
9973;DHT22;5027;53.560;10.062;2023-04-25T12:31:00;16.60;98.70
9973;DHT22;5027;53.560;10.062;2023-04-25T12:33:30;16.60;91.20
9973;DHT22;5027;53.560;10.062;2023-04-25T12:35:57;16.40;96.80
9973;DHT22;5027;53.560;10.062;2023-04-25T12:38:29;16.30;88.00
9973;DHT22;5027;53.560;10.062;2023-04-25T12:40:57;16.10;90.70
9973;DHT22;5027;53.560;10.062;2023-04-25T12:43:24;16.30;97.20
9973;DHT22;5027;53.560;10.062;2023-04-25T12:45:53;16.30;94.70
9973;DHT22;5027;53.560;10.062;2023-04-25T12:48:20;16.60;98.60
9973;DHT22;5027;53.560;10.062;2023-04-25T12:50:48;16.70;98.80
9973;DHT22;5027;53.560;10.062;2023-04-25T12:53:17;16.50;94.40
9973;DHT22;5027;53.560;10.062;2023-04-25T12:55:44;16.40;95.80
9973;DHT22;5027;53.560;10.062;2023-04-25T12:58:13;16.50;90.00
9973;DHT22;5027;53.560;10.062;2023-04-25T13:00:40;16.30;89.10
9973;DHT22;5027;53.560;10.062;2023-04-25T13:03:08;16.60;98.80
9973;DHT22;5027;53.560;10.062;2023-04-25T13:05:35;16.80;98.70
9973;DHT22;5027;53.560;10.062;2023-04-25T13:08:02;16.80;97.10
9973;DHT22;5027;53.560;10.062;2023-04-25T13:10:29;16.80;98.90
9973;DHT22;5027;53.560;10.062;2023-04-25T13:12:56;16.80;98.60
9973;DHT22;5027;53.560;10.062;2023-04-25T13:15:23;16.70;97.40
9973;DHT22;5027;53.560;10.062;2023-04-25T13:17:49;16.70;98.60
9973;DHT22;5027;53.560;10.062;2023-04-25T13:20:16;16.80;98.90
9973;DHT22;5027;53.560;10.062;2023-04-25T13:22:45;16.80;98.20
9973;DHT22;5027;53.560;10.062;2023-04-25T13:25:12;16.70;98.90
9973;DHT22;5027;53.560;10.062;2023-04-25T13:27:38;16.70;92.90
9973;DHT22;5027;53.560;10.062;2023-04-25T13:30:07;16.90;98.90
9973;DHT22;5027;53.560;10.062;2023-04-25T13:32:35;16.50;95.30
9973;DHT22;5027;53.560;10.062;2023-04-25T13:35:06;16.10;96.30
9973;DHT22;5027;53.560;10.062;2023-04-25T13:37:36;16.10;99.00
9973;DHT22;5027;53.560;10.062;2023-04-25T13:40:05;16.10;98.30
9973;DHT22;5027;53.560;10.062;2023-04-25T13:42:32;16.10;95.40
9973;DHT22;5027;53.560;10.062;2023-04-25T13:44:59;16.10;97.20
9973;DHT22;5027;53.560;10.062;2023-04-25T13:47:27;16.00;96.20
9973;DHT22;5027;53.560;10.062;2023-04-25T13:49:54;16.10;98.60
9973;DHT22;5027;53.560;10.062;2023-04-25T13:52:21;16.20;94.90
9973;DHT22;5027;53.560;10.062;2023-04-25T13:54:47;16.20;93.70
9973;DHT22;5027;53.560;10.062;2023-04-25T13:57:14;16.60;99.20
9973;DHT22;5027;53.560;10.062;2023-04-25T13:59:41;16.80;98.70
9973;DHT22;5027;53.560;10.062;2023-04-25T14:02:08;16.60;97.20
9973;DHT22;5027;53.560;10.062;2023-04-25T14:04:35;16.40;97.40
9973;DHT22;5027;53.560;10.062;2023-04-25T14:07:03;16.10;97.70
9973;DHT22;5027;53.560;10.062;2023-04-25T14:09:32;16.10;99.00
9973;DHT22;5027;53.560;10.062;2023-04-25T14:11:59;15.60;92.40
9973;DHT22;5027;53.560;10.062;2023-04-25T14:14:25;15.60;93.00
9973;DHT22;5027;53.560;10.062;2023-04-25T14:16:52;15.90;97.50
9973;DHT22;5027;53.560;10.062;2023-04-25T14:19:20;15.90;93.00
9973;DHT22;5027;53.560;10.062;2023-04-25T14:21:48;16.00;98.30
9973;DHT22;5027;53.560;10.062;2023-04-25T14:24:15;15.90;96.50
9973;DHT22;5027;53.560;10.062;2023-04-25T14:26:42;16.00;97.70
9973;DHT22;5027;53.560;10.062;2023-04-25T14:29:09;15.90;92.20
9973;DHT22;5027;53.560;10.062;2023-04-25T14:31:39;15.60;94.40
9973;DHT22;5027;53.560;10.062;2023-04-25T14:34:07;15.20;97.10
9973;DHT22;5027;53.560;10.062;2023-04-25T14:36:35;15.30;92.90
9973;DHT22;5027;53.560;10.062;2023-04-25T14:39:03;15.20;95.00
9973;DHT22;5027;53.560;10.062;2023-04-25T14:41:31;14.90;91.30
9973;DHT22;5027;53.560;10.062;2023-04-25T14:43:58;14.90;93.90
9973;DHT22;5027;53.560;10.062;2023-04-25T14:46:25;15.40;91.60
9973;DHT22;5027;53.560;10.062;2023-04-25T14:48:52;15.60;91.70
9973;DHT22;5027;53.560;10.062;2023-04-25T14:51:20;15.50;88.40
9973;DHT22;5027;53.560;10.062;2023-04-25T14:53:47;15.40;93.10
9973;DHT22;5027;53.560;10.062;2023-04-25T14:56:13;15.20;89.80
9973;DHT22;5027;53.560;10.062;2023-04-25T14:58:40;15.70;95.00
9973;DHT22;5027;53.560;10.062;2023-04-25T15:01:07;15.90;97.00
9973;DHT22;5027;53.560;10.062;2023-04-25T15:03:37;16.10;95.90
9973;DHT22;5027;53.560;10.062;2023-04-25T15:06:04;15.80;88.30
9973;DHT22;5027;53.560;10.062;2023-04-25T15:08:33;15.70;92.50
9973;DHT22;5027;53.560;10.062;2023-04-25T15:10:59;15.50;95.70
9973;DHT22;5027;53.560;10.062;2023-04-25T15:13:26;15.80;91.90
9973;DHT22;5027;53.560;10.062;2023-04-25T15:15:53;15.90;91.10
9973;DHT22;5027;53.560;10.062;2023-04-25T15:18:22;16.20;98.80
9973;DHT22;5027;53.560;10.062;2023-04-25T15:20:52;16.40;95.80
9973;DHT22;5027;53.560;10.062;2023-04-25T15:23:20;16.50;98.20
9973;DHT22;5027;53.560;10.062;2023-04-25T15:25:49;16.70;97.70
9973;DHT22;5027;53.560;10.062;2023-04-25T15:28:16;16.80;98.70
9973;DHT22;5027;53.560;10.062;2023-04-25T15:30:43;16.90;98.50
9973;DHT22;5027;53.560;10.062;2023-04-25T15:33:11;16.90;98.70
9973;DHT22;5027;53.560;10.062;2023-04-25T15:35:37;17.00;99.10
9973;DHT22;5027;53.560;10.062;2023-04-25T15:38:04;16.90;99.00
9973;DHT22;5027;53.560;10.062;2023-04-25T15:40:32;17.00;99.00
9973;DHT22;5027;53.560;10.062;2023-04-25T15:42:58;16.90;99.00
9973;DHT22;5027;53.560;10.062;2023-04-25T15:45:26;16.70;94.30
9973;DHT22;5027;53.560;10.062;2023-04-25T15:47:54;16.60;96.30
9973;DHT22;5027;53.560;10.062;2023-04-25T15:50:22;16.70;96.40
9973;DHT22;5027;53.560;10.062;2023-04-25T15:52:50;16.80;99.10
9973;DHT22;5027;53.560;10.062;2023-04-25T15:55:18;16.90;99.20
9973;DHT22;5027;53.560;10.062;2023-04-25T15:57:48;16.90;99.00
9973;DHT22;5027;53.560;10.062;2023-04-25T16:00:17;17.10;99.30
9973;DHT22;5027;53.560;10.062;2023-04-25T16:02:45;17.10;98.00
9973;DHT22;5027;53.560;10.062;2023-04-25T16:05:14;17.10;98.80
9973;DHT22;5027;53.560;10.062;2023-04-25T16:07:43;17.20;98.70
9973;DHT22;5027;53.560;10.062;2023-04-25T16:10:11;17.20;98.70